Latest Weather Observations for Cape Moreton

IDQ60801

Issued at 6:35 am EST Wednesday 26 November 2014 (issued every 30 minutes, with the page automatically refreshed every 10 minutes)

About weather observations | Map of weather stations | Latest weather observations for QLD | Other Formats
Station Details ID: 040043 Name: CAPE MORETON LIGHTHOUSE Lat: -27.03 Lon: 153.47 Height: 99.9 m
Data from the previous 72 hours. | See also: Recent months at Cape Moreton
Date/Time
EST
Temp
°C
App
Temp
°C
Dew
Point
Rel
Hum
%
Delta-T
°C
Wind Press
QNH
hPa
Press
MSL
hPa
Rain
since 9 am
mm
Dir
 
Spd
km/h
Gust
km/h
Spd
kts
Gust
kts
26/06:30am 24.5 24.7 20.6 79 2.6 NE 20 28 11 15 1016.9 1016.5 0.0
26/06:00am 23.7 23.6 20.8 84 1.9 NE 22 28 12 15 1016.6 1016.2 0.0
26/05:30am 23.6 23.6 20.9 85 1.8 NE 22 28 12 15 1016.2 1015.8 0.0
26/05:00am 23.3 23.4 21.2 88 1.4 NE 22 28 12 15 1016.1 1015.7 0.0
26/04:30am 23.2 23.7 21.1 88 1.4 NNE 20 26 11 14 1015.9 1015.5 0.0
26/04:00am 23.3 23.9 21.4 89 1.3 NE 20 24 11 13 1015.7 1015.3 0.0
26/03:30am 23.4 24.4 21.7 90 1.1 NE 19 24 10 13 1015.5 1015.1 0.0
26/03:00am 23.4 24.2 21.7 90 1.1 NNE 20 24 11 13 1015.5 1015.1 0.0
26/02:30am 23.2 24.5 21.6 91 1.1 NNE 17 20 9 11 1015.7 1015.3 0.0
26/02:00am 23.3 24.6 21.7 91 1.1 NNE 17 20 9 11 1015.8 1015.4 0.0
26/01:30am 23.2 24.5 21.6 91 1.1 N 17 20 9 11 1016.0 1015.6 0.0
26/01:00am 23.4 24.2 21.7 90 1.1 NNE 20 24 11 13 1016.2 1015.8 0.0
26/12:30am 23.6 25.9 22.0 91 1.1 NNE 13 19 7 10 1016.7 1016.3 0.0
26/12:00am 23.8 26.9 22.2 91 1.1 NNE 9 13 5 7 1017.1 1016.7 0.0
 
Date/Time
EST
Temp
°C
App
Temp
°C
Dew
Point
Rel
Hum
%
Delta-T
°C
Wind Press
QNH
hPa
Press
MSL
hPa
Rain
since 9 am
mm
Dir
 
Spd
km/h
Gust
km/h
Spd
kts
Gust
kts
25/11:30pm 23.8 26.1 22.1 90 1.1 N 13 15 7 8 1017.4 1017.0 0.0
25/11:00pm 23.8 25.6 21.9 89 1.3 N 15 19 8 10 1017.5 1017.1 0.0
25/10:30pm 23.8 24.8 21.7 88 1.4 N 19 24 10 13 1017.5 1017.1 0.0
25/10:00pm 23.8 25.1 21.7 88 1.4 NNE 17 20 9 11 1017.5 1017.1 0.0
25/09:30pm 24.0 24.5 21.9 88 1.4 NNE 22 32 12 17 1017.3 1016.9 0.0
25/09:00pm 24.0 23.4 21.9 88 1.4 N 28 33 15 18 1016.7 1016.3 0.0
25/08:30pm 24.1 23.6 22.2 89 1.3 N 28 35 15 19 1016.0 1015.6 0.0
25/08:00pm 23.9 23.8 22.2 90 1.1 N 26 35 14 19 1015.5 1015.1 0.0
25/07:30pm 24.0 23.1 22.1 89 1.3 N 30 37 16 20 1014.6 1014.2 0.0
25/07:00pm 24.0 23.1 22.1 89 1.3 N 30 41 16 22 1014.0 1013.5 0.0
25/06:30pm 24.1 22.7 22.0 88 1.4 N 32 41 17 22 1013.5 1013.0 0.0
25/06:00pm 24.2 22.7 22.1 88 1.4 N 33 43 18 23 1013.3 1012.8 0.0
25/05:30pm 24.4 23.8 21.9 86 1.7 N 28 35 15 19 1013.1 1012.6 0.0
25/05:00pm 24.6 22.7 21.3 82 2.2 N 33 43 18 23 1012.5 1012.1 0.0
25/04:30pm 24.9 22.9 21.2 80 2.4 N 33 41 18 22 1012.3 1011.9 0.0
25/04:00pm 25.1 23.3 21.2 79 2.6 N 32 39 17 21 1012.3 1011.9 0.0
25/03:30pm 25.5 23.7 21.2 77 2.9 N 32 37 17 20 1012.4 1012.0 0.0
25/03:00pm 26.0 24.0 20.8 73 3.4 NNE 32 37 17 20 1012.5 1012.1 0.0
25/02:30pm 26.1 24.5 20.7 72 3.6 N 30 35 16 19 1012.9 1012.4 0.0
25/02:00pm 26.5 25.3 20.8 71 3.8 N 28 35 15 19 1013.3 1012.8 0.0
25/01:30pm 26.5 25.2 20.6 70 3.9 N 28 35 15 19 1013.5 1013.0 0.0
25/01:00pm 26.5 24.6 19.4 65 4.6 N 28 35 15 19 1013.7 1013.2 0.0
25/12:30pm 26.8 24.8 19.2 63 4.9 NNE 28 33 15 18 1014.1 1013.6 0.0
25/12:00pm 27.2 26.1 17.7 56 6.0 N 20 30 11 16 1014.8 1014.4 0.0
25/11:30am 26.8 25.4 17.0 55 6.1 N 20 28 11 15 1015.3 1014.9 0.0
25/11:00am 26.6 25.1 17.7 58 5.6 N 22 32 12 17 1015.6 1015.2 0.0
25/10:30am 25.6 24.4 18.3 64 4.6 N 22 30 12 16 1016.0 1015.6 0.0
25/10:00am 25.2 24.5 19.6 71 3.6 N 22 28 12 15 1016.1 1015.7 0.0
25/09:30am 24.3 23.0 19.1 73 3.3 N 24 30 13 16 1016.4 1016.0 0.0
25/09:00am 24.0 23.2 19.3 75 3.0 NNW 22 28 12 15 1016.5 1016.1 0.0
25/08:30am 24.1 23.1 19.6 76 2.9 NW 24 30 13 16 1016.6 1016.2 0.0
25/08:00am 23.9 23.2 19.4 76 2.9 NW 22 32 12 17 1016.6 1016.2 0.0
25/07:30am 23.6 22.2 18.9 75 3.0 NW 24 35 13 19 1016.7 1016.3 0.0
25/07:00am 23.2 21.0 18.7 76 2.9 NNW 28 33 15 18 1016.6 1016.2 0.0
25/06:30am 22.8 21.1 19.0 79 2.4 NNW 26 33 14 18 1016.2 1015.8 0.0
25/06:00am 22.6 20.8 19.6 83 1.9 NNW 28 35 15 19 1015.5 1015.1 0.0
25/05:30am 22.2 20.5 19.7 86 1.6 NNW 28 35 15 19 1014.8 1014.4 0.0
25/05:00am 22.2 20.5 19.7 86 1.6 NW 28 35 15 19 1015.4 1015.0 0.0
25/04:30am 22.4 20.6 19.6 84 1.8 NNW 28 37 15 20 1015.1 1014.7 0.0
25/04:00am 22.6 21.1 19.4 82 2.0 N 26 37 14 20 1014.7 1014.3 0.0
25/03:30am 22.8 21.4 19.6 82 2.1 NNW 26 35 14 19 1014.6 1014.2 0.0
25/03:00am 22.8 20.0 19.0 79 2.4 NNW 32 39 17 21 1014.5 1014.1 0.0
25/02:30am 23.0 19.7 19.2 79 2.4 N 35 43 19 23 1014.6 1014.2 0.0
25/02:00am 23.1 19.4 19.1 78 2.6 N 37 48 20 26 1014.5 1014.1 0.0
25/01:30am 23.0 19.2 19.0 78 2.5 N 37 46 20 25 1014.8 1014.4 0.0
25/01:00am 23.0 19.7 19.2 79 2.4 N 35 48 19 26 1014.9 1014.5 0.0
25/12:30am 23.3 19.2 19.9 81 2.2 N 41 52 22 28 1015.2 1014.8 0.0
25/12:00am 23.2 18.4 19.6 80 2.3 N 44 54 24 29 1015.4 1015.0 0.0
 
Date/Time
EST
Temp
°C
App
Temp
°C
Dew
Point
Rel
Hum
%
Delta-T
°C
Wind Press
QNH
hPa
Press
MSL
hPa
Rain
since 9 am
mm
Dir
 
Spd
km/h
Gust
km/h
Spd
kts
Gust
kts
24/11:30pm 23.4 18.7 19.8 80 2.3 N 44 54 24 29 1015.7 1015.3 0.0
24/11:00pm 23.4 19.1 19.5 79 2.5 N 41 50 22 27 1015.9 1015.5 0.0
24/10:30pm 23.2 19.2 19.4 79 2.4 N 39 52 21 28 1016.0 1015.6 0.0
24/10:00pm 23.4 19.1 19.5 79 2.5 N 41 50 22 27 1016.0 1015.6 0.0
24/09:30pm 23.4 20.4 19.8 80 2.3 N 35 52 19 28 1016.0 1015.6 0.0
24/09:00pm 23.3 19.8 19.5 79 2.4 N 37 46 20 25 1015.8 1015.4 0.0
24/08:30pm 23.3 20.1 19.5 79 2.4 N 35 48 19 26 1015.4 1015.0 0.0
24/08:00pm 23.3 19.8 19.5 79 2.4 N 37 48 20 26 1015.1 1014.7 0.0
24/07:30pm 23.2 20.0 19.4 79 2.4 N 35 46 19 25 1014.6 1014.2 0.0
24/07:00pm 23.5 20.1 19.8 80 2.4 N 37 48 20 26 1014.3 1013.8 0.0
24/06:30pm 23.4 20.6 19.5 79 2.5 N 33 44 18 24 1014.2 1013.7 0.0
24/06:00pm 23.6 20.6 19.9 80 2.4 N 35 46 19 25 1013.7 1013.2 0.0
24/05:30pm 23.8 20.0 19.7 78 2.6 N 39 46 21 25 1013.5 1013.0 0.0
24/05:00pm 24.0 20.6 19.9 78 2.7 N 37 46 20 25 1013.4 1012.9 0.0
24/04:30pm 24.2 20.7 19.7 76 2.9 N 37 48 20 26 1013.4 1012.9 0.0
24/04:00pm 24.7 21.0 20.0 75 3.1 NNE 39 48 21 26 1013.4 1012.9 0.0
24/03:30pm 25.1 21.7 19.9 73 3.4 NNE 37 44 20 24 1013.7 1013.2 0.0
24/03:00pm 25.6 23.3 20.6 74 3.3 NNE 33 44 18 24 1014.0 1013.5 0.0
24/02:30pm 25.8 23.1 20.4 72 3.5 NNE 35 44 19 24 1014.3 1013.8 0.0
24/02:00pm 26.1 23.5 20.7 72 3.6 N 35 41 19 22 1014.9 1014.5 0.0
24/01:30pm 26.1 23.3 20.2 70 3.9 N 35 43 19 23 1015.3 1014.9 0.0
24/01:00pm 26.9 25.4 21.0 70 3.9 NNE 30 39 16 21 1015.7 1015.3 0.0
24/12:30pm 26.4 24.2 20.7 71 3.8 N 33 39 18 21 1016.2 1015.8 0.0
24/12:00pm 26.8 26.1 20.2 67 4.3 N 24 32 13 17 1016.7 1016.3 0.0
24/11:30am 27.2 27.3 20.3 66 4.5 N 20 28 11 15 1017.2 1016.8 0.0
24/11:00am 26.6 26.2 20.2 68 4.2 N 22 28 12 15 1017.7 1017.3 0.0
24/10:30am 25.8 25.0 20.1 71 3.7 N 24 30 13 16 1018.1 1017.7 0.0
24/10:00am 26.3 25.7 20.6 71 3.7 N 24 32 13 17 1018.3 1017.9 0.0
24/09:30am 25.8 25.0 20.1 71 3.7 N 24 30 13 16 1018.4 1018.0 0.0
24/09:00am 25.5 25.7 20.5 74 3.3 N 20 26 11 14 1018.6 1018.2 0.0
24/08:30am 25.0 24.3 19.6 72 3.5 N 22 28 12 15 1018.6 1018.2 0.0
24/08:00am 25.1 24.6 19.9 73 3.4 N 22 28 12 15 1018.7 1018.3 0.0
24/07:30am 24.5 24.2 19.6 74 3.2 N 20 26 11 14 1018.6 1018.2 0.0
24/07:00am 24.1 23.0 19.4 75 3.0 N 24 30 13 16 1018.4 1018.0 0.0
24/06:30am 23.8 23.6 19.7 78 2.6 N 20 26 11 14 1018.3 1017.9 0.0
24/06:00am 23.5 22.0 19.4 78 2.6 N 26 33 14 18 1018.0 1017.6 0.0
24/05:30am 23.4 21.6 19.5 79 2.5 N 28 35 15 19 1017.8 1017.4 0.0
24/05:00am 23.2 20.9 19.4 79 2.4 N 30 39 16 21 1017.6 1017.2 0.0
24/04:30am 23.3 21.4 20.2 83 2.0 N 30 39 16 21 1017.3 1016.9 0.0
24/04:00am 23.3 21.7 20.1 82 2.1 N 28 39 15 21 1017.1 1016.7 0.0
24/03:30am 23.1 21.4 19.9 82 2.1 N 28 37 15 20 1017.0 1016.6 0.0
24/03:00am 23.2 21.2 20.0 82 2.1 N 30 37 16 20 1016.8 1016.4 0.0
24/02:30am 23.3 21.4 20.2 83 2.0 N 30 35 16 19 1016.8 1016.4 0.0
24/02:00am 23.2 21.2 20.0 82 2.1 N 30 41 16 22 1016.7 1016.3 0.0
24/01:30am 23.5 21.4 20.6 84 1.9 N 32 41 17 22 1016.7 1016.3 0.0
24/01:00am 23.5 21.8 20.6 84 1.9 N 30 37 16 20 1016.9 1016.5 0.0
24/12:30am 23.6 22.1 20.9 85 1.8 N 30 37 16 20 1017.3 1016.9 0.0
24/12:00am 23.7 22.6 21.0 85 1.8 N 28 37 15 20 1017.5 1017.1 0.0
 
Date/Time
EST
Temp
°C
App
Temp
°C
Dew
Point
Rel
Hum
%
Delta-T
°C
Wind Press
QNH
hPa
Press
MSL
hPa
Rain
since 9 am
mm
Dir
 
Spd
km/h
Gust
km/h
Spd
kts
Gust
kts
23/11:30pm 23.7 22.5 20.8 84 1.9 N 28 37 15 20 1017.6 1017.2 0.0
23/11:00pm 23.7 21.4 20.6 83 2.0 N 33 41 18 22 1017.4 1017.0 0.0
23/10:30pm 23.8 22.4 21.1 85 1.8 N 30 39 16 21 1017.5 1017.1 0.0
23/10:00pm 23.7 21.8 21.0 85 1.8 N 32 46 17 25 1017.4 1017.0 0.0
23/09:30pm 23.7 21.6 21.0 85 1.8 N 33 44 18 24 1017.3 1016.9 0.0
23/09:00pm 23.8 21.7 20.9 84 1.9 N 33 43 18 23 1017.1 1016.7 0.0
23/08:30pm 23.8 21.8 21.1 85 1.8 N 33 43 18 23 1016.9 1016.5 0.0
23/08:00pm 24.1 22.1 21.2 84 1.9 N 33 39 18 21 1016.7 1016.3 0.0
23/07:30pm 23.9 22.3 20.8 83 2.0 N 30 41 16 22 1016.1 1015.7 0.0
23/07:00pm 24.0 22.0 20.7 82 2.2 N 32 41 17 22 1015.8 1015.4 0.0
23/06:30pm 23.9 21.5 20.4 81 2.3 N 33 41 18 22 1015.2 1014.8 0.0
23/06:00pm 23.9 21.4 20.2 80 2.4 NNE 33 44 18 24 1014.7 1014.3 0.0
23/05:30pm 24.2 21.7 20.1 78 2.7 NNE 33 43 18 23 1014.4 1013.9 0.0
23/05:00pm 24.6 22.4 20.3 77 2.8 NNE 32 41 17 22 1014.7 1014.3 0.0
23/04:30pm 24.8 21.9 20.1 75 3.1 NNE 35 43 19 23 1014.5 1014.1 0.0
23/04:00pm 25.1 22.7 19.9 73 3.4 NNE 32 43 17 23 1014.7 1014.3 0.0
23/03:30pm 25.5 23.1 19.9 71 3.6 NNE 32 41 17 22 1015.0 1014.6 0.0
23/03:00pm 25.8 23.8 19.9 70 3.8 NNE 30 39 16 21 1015.3 1014.9 0.0
23/02:30pm 25.9 23.3 19.5 68 4.1 NNE 32 41 17 22 1015.4 1015.0 0.0
23/02:00pm 25.8 23.0 19.4 67 4.1 NNE 33 41 18 22 1015.8 1015.4 0.0
23/01:30pm 26.1 23.3 19.5 67 4.3 NNE 33 41 18 22 1016.1 1015.7 0.0
23/01:00pm 26.6 24.0 19.5 65 4.6 NNE 32 41 17 22 1016.6 1016.2 0.0
23/12:30pm 27.0 25.4 20.1 66 4.5 NNE 28 35 15 19 1017.2 1016.8 0.0
23/12:00pm 27.0 25.9 20.3 66 4.4 NNE 26 33 14 18 1017.8 1017.4 0.0
23/11:30am 27.3 27.4 20.4 66 4.5 N 20 30 11 16 1018.2 1017.8 0.0
23/11:00am 26.8 26.7 19.9 66 4.5 N 20 28 11 15 1018.5 1018.1 0.0
23/10:30am 26.9 27.0 20.3 67 4.3 N 20 30 11 16 1018.4 1018.0 0.0
23/10:00am 25.9 25.2 20.2 71 3.7 N 24 32 13 17 1018.9 1018.5 0.0
23/09:30am 25.3 23.8 20.3 74 3.3 N 28 32 15 17 1019.0 1018.6 0.0
23/09:00am 25.3 24.1 20.1 73 3.4 N 26 32 14 17 1018.9 1018.5 0.0
23/08:30am 24.9 23.9 20.4 76 2.9 N 26 33 14 18 1018.8 1018.4 0.0
23/08:00am 24.4 22.6 20.3 78 2.7 N 30 37 16 20 1018.7 1018.3 0.0
23/07:30am 24.2 21.8 20.3 79 2.5 N 33 39 18 21 1018.5 1018.1 0.0
23/07:00am 24.1 21.4 20.4 80 2.4 N 35 43 19 23 1018.2 1017.8 0.0

Other Formats:

Comma delimited format used in spreadsheet applications
http://www.bom.gov.au/fwo/IDQ60801/IDQ60801.94594.axf

JavaScript Object Notation format (JSON) in row-major order
http://www.bom.gov.au/fwo/IDQ60801/IDQ60801.94594.json